Estações Meteorológicas Convencionais MB

São Pedro D'Aldeia
Data Hora VISIB (KM) Cobertura(OITAVOS) DD Vento(º) Intensidade (NÓS) TEMP DO AR (º) Temp do Ponto de Orvalho(ºC) Pressão (hPa) TEMP MAX (ºC) TEMP MIN (ºC)
07/07/2019 00:00 50 3 18.00 11.30 1029.80 18.00
01/11/2018 18:00 7 220 12
01/11/2018 12:00 10/20 6 20 5
31/10/2018 18:00 20/50 5 10 12
31/10/2018 12:00 20/50 7 70 10
29/10/2018 18:00 10/20 7 110 5 25.00 13.70 1017.20
29/10/2018 12:00 20/50 7 180 6 22.60 14.80 1018.20 18.80
29/10/2018 00:00 4/10 7 240 8 20.10 18.10 1016.10 24.90
28/10/2018 18:00 10/20 6 240 17 23.40 16.60 1013.10
28/10/2018 00:00 20/50 6 250 7 24.40 21.20 1006.30 33.20
27/10/2018 18:00 20/50 6 200 9 32.80 21.30 1004.00
27/10/2018 12:00 20/50 7 50 11 25.50 21.70 1004.60 21.70
26/10/2018 18:00 20/50 7 70 10 24.80 20.70 1011.10
26/10/2018 12:00 4/10 8 50 9 22.60 21.20 1013.80 19.90
26/10/2018 00:00 10/20 8 40 10 19.90 18.60 1014.40 23.00
25/10/2018 18:00 10/20 8 50 10 21.80 17.90 1013.60
25/10/2018 12:00 4/10 8 80 11 22.80 21.50 1017.00 21.10
25/10/2018 00:00 2/4 8 170 8 22.10 20.80 1017.70 26.40
24/10/2018 18:00 10/20 7 180 7 24.50 18.80 1015.60
24/10/2018 12:00 10/20 7 210 8 24.50 20.90 1017.60 21.20
24/10/2018 00:00 20/50 0 50 5 21.70 19.50 1015.50 29.70
23/10/2018 18:00 20/50 6 70 9 29.10 17.80 1012.80
23/10/2018 12:00 10/20 0 50 10 25.70 17.00 1014.40 19.90
23/10/2018 00:00 10/20 1 50 13 21.10 16.60 1017.10 26.20
22/10/2018 18:00 10/20 1 70 18 24.70 14.60 1015.40
22/10/2018 12:00 20/50 3 70 12 23.80 14.10 1019.60 14.40
21/10/2018 18:00 20/50 4 160 8 23.30 12.80 1017.50
21/10/2018 12:00 10/20 7 360 4 18.80 16.30 1019.70 16.80
21/10/2018 00:00 10/20 4 200 10 20.30 12.60 1018.40 24.10
20/10/2018 18:00 10/20 6 210 14 23.50 13.20 1015.50
20/10/2018 12:00 20/50 6 220 12 23.60 14.20 1017.70 21.30
20/10/2018 00:00 4/10 8 210 13 22.80 21.30 1013.20 26.10
19/10/2018 18:00 10/20 7 240 15 25.00 21.20 1009.30
19/10/2018 12:00 4/10 7 240 13 23.90 21.50 1010.60 21.30
18/10/2018 12:00 10/20 7 50 14 24.50 21.50 1013.70 21.70
18/10/2018 00:00 20/50 8 60 16 22.00 20.80 1016.10 25.20
17/10/2018 18:00 20/50 7 70 21 24.00 20.60 1013.70
17/10/2018 12:00 10/20 6 50 13 23.80 20.80 1016.50 21.00
17/10/2018 00:00 10/20 7 60 6 21.40 19.40 1016.30 24.20
16/10/2018 18:00 10/20 7 70 12 23.10 18.50 1014.40
16/10/2018 12:00 20/50 7 60 9 21.60 19.40 1016.10 20.90
16/10/2018 00:00 20/50 8 100 8 20.90 18.00 1014.90 23.80
15/10/2018 18:00 20/50 7 120 7 22.40 18.60 1011.80
15/10/2018 12:00 10/20 7 220 2 23.10 18.50 1014.50 20.10
15/10/2018 00:00 10/20 7 210 12 22.70 18.70 1015.20 26.00
14/10/2018 18:00 4/10 7 220 12 23.00 20.60 1012.60
14/10/2018 12:00 20/50 7 230 13 25.90 21.40 13.80 23.10
14/10/2018 00:00 10/20 7 260 9 25.20 20.90 1011.50 32.50
13/10/2018 18:00 20/50 5 60 10 31.60 21.10 1008.50
13/10/2018 12:00 20/50 3 60 10 27.50 21.20 1013.00 22.30
12/10/2018 18:00 20/50 6 70 9 28.00 21.70 1014.80
12/10/2018 12:00 4/10 7 150 7 24.90 21.90 1019.00 22.80
12/10/2018 00:00 10/20 7 220 2 23.40 21.70 1018.40 26.00
11/10/2018 18:00 4/10 8 210 9 24.40 21.80 1015.40
11/10/2018 12:00 4/10 8 290 2 23.00 22.00 1017.70 22.00
11/10/2018 00:00 10/20 7 310 3 23.20 21.70 1014.20 33.20
10/10/2018 18:00 20/50 4 70 8 30.50 20.40 1009.50
10/10/2018 12:00 20/50 5 60 9 27.90 21.80 1011.30 21.90
10/10/2018 00:00 20/50 6 50 9 24.00 20.40 1011.50 28.00
09/10/2018 18:00 20/50 7 70 2 28.00 20.20 1011.30
09/10/2018 12:00 20/50 7 60 14 23.50 20.10 1013.90 22.30
09/10/2018 00:00 10/20 7 70 13 22.50 21.20 1016.50 26.00
08/10/2018 18:00 10/20 7 70 14 25.40 20.70 1013.80
08/10/2018 00:00 10/20 8 60 15 21.50 19.10 1018.90 23.10
07/10/2018 18:00 20/50 7 70 17 21.70 18.50 1016.50
07/10/2018 12:00 10/20 7 60 13 21.00 18.80 1020.10 17.60
07/10/2018 00:00 4/10 8 140 6 18.40 16.80 1022.30 22.10
06/10/2018 18:00 10/20 8 110 7 20.30 16.60 1018.60
06/10/2018 12:00 20/50 7 60 2 22.10 16.50 1021.00 19.20
06/10/2018 00:00 20/50 7 350 3 19.80 17.20 1021.10 22.80
05/10/2018 18:00 10/20 8 170 12 21.90 15.80 1018.60
05/10/2018 12:00 4/10 8 180 10 21.60 19.90 1018.70
05/10/2018 00:00 10/20 6 250 5 23.50 21.50 1016.80 27.20
04/10/2018 18:00 4/10 8 230 9 25.70 22.10 1014.40
04/10/2018 12:00 10/20 7 230 14 26.80 21.90 1015.80 21.60
04/10/2018 00:00 10/20 5 40 9 24.00 21.00 1012.30 31.80
03/10/2018 20/50 2 70 13 31.10 20.90 1009.60
03/10/2018 00:00 20/50 2 50 6 23.80 21.00 1013.70 33.10
02/10/2018 18:00 20/50 2 70 10 31.30 19.90 1010.70
02/10/2018 12:00 20/50 2 80 4 29.70 21.80 1013.40 22.30
02/10/2018 00:00 4/10 7 50 9 24.50 20.30 1013.90 29.40
01/10/2018 18:00 10/20 7 60 18 28.10 19.20 1010.70
01/10/2018 12:00 20/50 7 50 17 26.10 20.80 1013.20 22.90
01/10/2018 06:00 10/20 2 50 13 23.30 21.10 1015.00 27.90
30/09/2018 18:00 10/20 4 70 22 27.00 18.50 1012.90
30/09/2018 12:00 20/50 3 60 19 25.60 19.60 1016.50 20.20
30/09/2018 00:00 10/20 7 70 8 23.20 20.60 1016.70 25.90
29/09/2018 00:00 10/20 8 320 4 22.50 21.30 1017.00 26.00
28/09/2018 18:00 10/20 8 210 11 24.30 21.50 1014.90
28/09/2018 12:00 10/20 7 220 11 24.60 22.00 1015.90 21.40
28/09/2018 00:00 4/10 7 240 11 24.50 21.70 1014.50 32.80
27/09/2018 18:00 20/50 3 80 10 32.40 18.50 1008.80
27/09/2018 12:00 20/50 1 50 8 27.20 20.20 1011.70 19.90
27/09/2018 00:00 10/20 3 50 17 23.30 19.30 1012.30 29.50
26/09/2018 18:00 10/20 2 70 23 28.30 19.70 1010.70
26/09/2018 00:00 10/20 2 60 13 23.30 20.90 1015.60 28.80
25/09/2018 18:00 20/50 3 130 8 26.80 20.30 1013.60
25/09/2018 12:00 10/20 5 150 4 25.50 20.00 1016.50 21.80
25/09/2018 00:00 20/50 0 30 5 22.70 20.60 1014.90 30.20
24/09/2018 18:00 20/50 1 80 8 30.20 20.40 1012.40